createdAt,value
2022-12-23T00:00:16.855Z,0.9
2022-12-23T00:01:26.663Z,0.8
2022-12-23T00:02:36.389Z,1.4
2022-12-23T00:03:46.057Z,1.1
2022-12-23T00:04:53.621Z,1.1
2022-12-23T00:06:03.336Z,1
2022-12-23T00:07:11.988Z,1.4
2022-12-23T00:08:21.653Z,0.7
2022-12-23T00:09:31.347Z,0.8
2022-12-23T00:10:39.001Z,0.6
2022-12-23T00:11:48.668Z,0.6
2022-12-23T00:12:58.357Z,0.9
2022-12-23T00:14:08.058Z,0.5
2022-12-23T00:15:17.756Z,0.6
2022-12-23T00:16:26.489Z,1.5
2022-12-23T00:17:36.107Z,0.6
2022-12-23T00:18:45.759Z,0.8
2022-12-23T00:19:54.427Z,0.7
2022-12-23T00:21:08.228Z,1.2
2022-12-23T00:22:12.829Z,0.7
2022-12-23T00:23:22.457Z,0.9
2022-12-23T00:24:31.098Z,1.3
2022-12-23T00:25:39.760Z,1
2022-12-23T00:26:49.559Z,0.7
2022-12-23T00:27:59.244Z,0.8
2022-12-23T00:29:08.920Z,0.8
2022-12-23T00:30:18.606Z,1.1
2022-12-23T00:31:27.386Z,1
2022-12-23T00:32:37.015Z,1
2022-12-23T00:33:45.667Z,1.8
2022-12-23T00:34:54.327Z,1.2
2022-12-23T00:36:04.046Z,1
2022-12-23T00:37:13.676Z,1.3
2022-12-23T00:38:22.384Z,0.9
2022-12-23T00:39:32.054Z,1.2
2022-12-23T00:40:40.703Z,1
2022-12-23T00:41:50.384Z,1.1
2022-12-23T00:42:59.070Z,1.2
2022-12-23T00:44:07.777Z,1.1
2022-12-23T00:45:17.441Z,1.3
2022-12-23T00:46:27.211Z,1.2
2022-12-23T00:47:36.786Z,2
2022-12-23T00:48:46.433Z,1
2022-12-23T00:49:55.126Z,1.1
2022-12-23T00:51:04.785Z,1.2
2022-12-23T00:52:13.482Z,1.2
2022-12-23T00:53:23.193Z,1.4
2022-12-23T00:54:32.870Z,1.3
2022-12-23T00:55:41.535Z,1.5
2022-12-23T00:56:50.222Z,1.3
2022-12-23T00:57:58.903Z,1.2
2022-12-23T00:59:08.594Z,1.4
2022-12-23T01:00:18.272Z,0.9
2022-12-23T01:01:28.114Z,1.1
2022-12-23T01:02:37.725Z,1.2
2022-12-23T01:03:47.346Z,0.7
2022-12-23T01:04:56.026Z,1.7
2022-12-23T01:06:05.704Z,0.8
2022-12-23T01:07:14.403Z,0.9
2022-12-23T01:08:24.087Z,1
2022-12-23T01:09:33.745Z,1.2
2022-12-23T01:10:42.416Z,1.4
2022-12-23T01:11:51.061Z,0.8
2022-12-23T01:13:00.752Z,0.9
2022-12-23T01:14:09.474Z,1.4
2022-12-23T01:15:18.137Z,1.4
2022-12-23T01:16:26.825Z,1.3
2022-12-23T01:17:34.464Z,0.6
2022-12-23T01:18:44.211Z,0.7
2022-12-23T01:19:52.804Z,0.4
2022-12-23T01:21:00.458Z,0.5
2022-12-23T01:22:10.119Z,0.4
2022-12-23T01:23:18.779Z,0.5
2022-12-23T01:24:28.501Z,0.9
2022-12-23T01:25:38.193Z,0.8
2022-12-23T01:26:46.882Z,0.4
2022-12-23T01:27:56.521Z,0.7
2022-12-23T01:29:06.228Z,0.3
2022-12-23T01:30:13.908Z,0.3
2022-12-23T01:31:23.577Z,0.4
2022-12-23T01:32:33.226Z,0.5
2022-12-23T01:33:41.890Z,0.8
2022-12-23T01:34:50.599Z,0.5
2022-12-23T01:35:59.294Z,0.6
2022-12-23T01:37:08.982Z,1
2022-12-23T01:38:18.647Z,0.7
2022-12-23T01:39:28.336Z,0.7
2022-12-23T01:40:37.978Z,0.8
2022-12-23T01:41:46.684Z,1
2022-12-23T01:42:56.366Z,0.8
2022-12-23T01:44:06.037Z,0.7
2022-12-23T01:45:14.696Z,0.9
2022-12-23T01:46:24.383Z,0.7
2022-12-23T01:47:33.033Z,0.9
2022-12-23T01:48:41.691Z,0.8
2022-12-23T01:49:51.358Z,0.8
2022-12-23T01:51:01.027Z,1
2022-12-23T01:52:10.700Z,0.7
2022-12-23T01:53:21.409Z,0.8
2022-12-23T01:54:31.071Z,1
2022-12-23T01:55:40.737Z,0.7
2022-12-23T01:56:49.430Z,0.7
2022-12-23T01:57:58.131Z,0.9
2022-12-23T01:59:07.869Z,1
2022-12-23T02:00:16.467Z,0.9
2022-12-23T02:01:26.272Z,0.8
2022-12-23T02:02:34.917Z,0.8
2022-12-23T02:03:44.753Z,1.1
2022-12-23T02:04:54.181Z,0.7
2022-12-23T02:06:03.848Z,0.6
2022-12-23T02:07:12.607Z,0.6
2022-12-23T02:08:22.287Z,0.5
2022-12-23T02:09:30.949Z,0.4
2022-12-23T02:10:40.678Z,0.5
2022-12-23T02:11:48.345Z,0.5
2022-12-23T02:12:58.009Z,0.6
2022-12-23T02:14:07.742Z,0.7
2022-12-23T02:15:16.431Z,0.5
2022-12-23T02:16:26.169Z,0.7
2022-12-23T02:17:35.785Z,0.8
2022-12-23T02:18:44.447Z,0.7
2022-12-23T02:19:54.297Z,0.8
2022-12-23T02:21:02.942Z,0.8
2022-12-23T02:22:11.628Z,0.7
2022-12-23T02:23:21.309Z,1
2022-12-23T02:24:28.976Z,0.8
2022-12-23T02:25:38.636Z,0.7
2022-12-23T02:26:48.316Z,0.8
2022-12-23T02:27:57.068Z,0.7
2022-12-23T02:29:06.710Z,1.2
2022-12-23T02:30:16.391Z,1.1
2022-12-23T02:31:25.171Z,0.7
2022-12-23T02:32:34.751Z,0.7
2022-12-23T02:33:42.421Z,1.1
2022-12-23T02:34:52.096Z,0.8
2022-12-23T02:36:00.793Z,0.9
2022-12-23T02:37:09.464Z,0.9
2022-12-23T02:38:19.117Z,0.8
2022-12-23T02:39:28.816Z,0.9
2022-12-23T02:40:37.481Z,1.1
2022-12-23T02:41:46.137Z,0.9
2022-12-23T02:42:54.809Z,0.6
2022-12-23T02:44:04.499Z,0.9
2022-12-23T02:45:14.241Z,1.5
2022-12-23T02:46:22.983Z,0.6
2022-12-23T02:47:32.618Z,0.9
2022-12-23T02:48:42.254Z,1.6
2022-12-23T02:49:50.933Z,0.6
2022-12-23T02:50:59.603Z,0.4
2022-12-23T02:52:07.261Z,0.5
2022-12-23T02:53:16.950Z,0.4
2022-12-23T02:54:26.598Z,0.5
2022-12-23T02:55:35.315Z,0.5
2022-12-23T02:56:45.005Z,0.8
2022-12-23T02:57:53.659Z,0.5
2022-12-23T02:59:02.367Z,0.6
2022-12-23T03:00:11.033Z,0.7
2022-12-23T03:01:18.770Z,0.5
2022-12-23T03:02:28.577Z,0.6
2022-12-23T03:03:38.185Z,0.7
2022-12-23T03:04:45.773Z,0.7
2022-12-23T03:05:55.438Z,0.6
2022-12-23T03:07:07.803Z,0.5
2022-12-23T03:08:14.774Z,0.6
2022-12-23T03:09:24.473Z,2.2
2022-12-23T03:10:33.164Z,0.7
2022-12-23T03:11:42.893Z,1
2022-12-23T03:12:51.553Z,0.9
2022-12-23T03:14:01.253Z,1.1
2022-12-23T03:15:10.900Z,1.3
2022-12-23T03:16:20.651Z,1.4
2022-12-23T03:17:30.243Z,1.2
2022-12-23T03:18:38.945Z,1.4
2022-12-23T03:19:48.776Z,1
2022-12-23T03:20:58.297Z,1.2
2022-12-23T03:22:06.974Z,1
2022-12-23T03:23:16.672Z,1.2
2022-12-23T03:24:26.331Z,1.2
2022-12-23T03:25:35.020Z,1.4
2022-12-23T03:26:43.695Z,1.6
2022-12-23T03:27:52.343Z,1
2022-12-23T03:29:01.048Z,1.1
2022-12-23T03:30:10.742Z,0.7
2022-12-23T03:31:20.565Z,0.6
2022-12-23T03:32:29.158Z,0.7
2022-12-23T03:33:38.840Z,0.9
2022-12-23T03:34:48.503Z,1.1
2022-12-23T03:35:58.185Z,0.9
2022-12-23T03:37:07.844Z,0.8
2022-12-23T03:38:16.491Z,0.8
2022-12-23T03:39:26.185Z,0.7
2022-12-23T03:40:35.843Z,0.5
2022-12-23T03:41:43.516Z,0.6
2022-12-23T03:42:53.223Z,0.5
2022-12-23T03:44:02.890Z,0.5
2022-12-23T03:45:37.333Z,0.7
2022-12-23T03:46:23.320Z,0.9
2022-12-23T03:47:31.915Z,1.1
2022-12-23T03:48:41.626Z,1
2022-12-23T03:49:50.317Z,1.1
2022-12-23T03:50:57.999Z,1.1
2022-12-23T03:52:07.694Z,1
2022-12-23T03:53:16.344Z,0.8
2022-12-23T03:54:25.056Z,0.5
2022-12-23T03:55:33.712Z,0.4
2022-12-23T03:56:42.386Z,0.4
2022-12-23T03:57:52.054Z,0.5
2022-12-23T03:59:00.701Z,0.6
2022-12-23T04:00:09.394Z,0.7
2022-12-23T04:01:19.109Z,0.7
2022-12-23T04:02:27.897Z,0.8
2022-12-23T04:03:36.456Z,1
2022-12-23T04:04:46.075Z,0.6
2022-12-23T04:05:54.786Z,0.6
2022-12-23T04:07:04.459Z,0.6
2022-12-23T04:08:13.140Z,0.6
2022-12-23T04:09:22.751Z,0.6
2022-12-23T04:10:32.447Z,0.5
2022-12-23T04:11:41.145Z,0.6
2022-12-23T04:12:48.812Z,0.6
2022-12-23T04:13:58.473Z,0.7
2022-12-23T04:15:12.710Z,0.7
2022-12-23T04:16:18.824Z,0.8
2022-12-23T04:17:27.455Z,0.6
2022-12-23T04:18:36.101Z,0.5
2022-12-23T04:19:45.763Z,0.6
2022-12-23T04:20:53.417Z,0.7
2022-12-23T04:22:02.101Z,0.6
2022-12-23T04:23:11.845Z,0.6
2022-12-23T04:24:21.572Z,0.6
2022-12-23T04:25:30.215Z,0.7
2022-12-23T04:26:39.919Z,0.7
2022-12-23T04:27:48.601Z,0.6
2022-12-23T04:28:58.292Z,0.6
2022-12-23T04:30:06.999Z,0.7
2022-12-23T04:31:15.713Z,0.6
2022-12-23T04:32:25.367Z,0.8
2022-12-23T04:33:35.026Z,0.7
2022-12-23T04:34:44.742Z,0.6
2022-12-23T04:35:53.422Z,0.6
2022-12-23T04:37:01.106Z,0.6
2022-12-23T04:38:10.937Z,0.7
2022-12-23T04:39:19.618Z,0.6
2022-12-23T04:40:28.354Z,0.7
2022-12-23T04:41:37.969Z,0.6
2022-12-23T04:42:47.661Z,0.7
2022-12-23T04:43:56.317Z,0.6
2022-12-23T04:45:03.972Z,0.7
2022-12-23T04:46:12.809Z,0.6
2022-12-23T04:47:21.491Z,0.7
2022-12-23T04:48:30.136Z,0.7
2022-12-23T04:49:39.820Z,0.7
2022-12-23T04:50:49.530Z,0.8
2022-12-23T04:51:57.199Z,0.7
2022-12-23T04:53:06.883Z,0.7
2022-12-23T04:54:16.540Z,0.6
2022-12-23T04:55:26.223Z,0.9
2022-12-23T04:56:35.910Z,0.7
2022-12-23T04:57:44.566Z,0.8
2022-12-23T04:58:54.227Z,0.7
2022-12-23T05:00:02.908Z,0.6
2022-12-23T05:01:11.702Z,0.5
2022-12-23T05:02:21.444Z,0.5
2022-12-23T05:03:29.974Z,0.4
2022-12-23T05:04:39.625Z,0.3
2022-12-23T05:05:49.273Z,0.3
2022-12-23T05:06:57.942Z,0.2
2022-12-23T05:08:07.599Z,0.2
2022-12-23T05:09:17.317Z,0.3
2022-12-23T05:10:24.995Z,0.3
2022-12-23T05:11:38.615Z,0.2
2022-12-23T05:12:43.398Z,0.3
2022-12-23T05:13:52.055Z,0.3
2022-12-23T05:15:01.760Z,0.3
2022-12-23T05:16:09.489Z,0.2
2022-12-23T05:17:19.746Z,0.3
2022-12-23T05:18:29.438Z,0.3
2022-12-23T05:19:39.209Z,0.3
2022-12-23T05:20:48.842Z,0.3
2022-12-23T05:21:57.519Z,0.4
2022-12-23T05:23:06.263Z,0.2
2022-12-23T05:24:16.005Z,0.3
2022-12-23T05:25:24.749Z,0.3
2022-12-23T05:26:34.509Z,0.3
2022-12-23T05:27:44.207Z,0.3
2022-12-23T05:28:52.910Z,0.4
2022-12-23T05:30:02.639Z,0.3
2022-12-23T05:31:12.391Z,0.3
2022-12-23T05:32:19.997Z,0.3
2022-12-23T05:33:29.767Z,0.2
2022-12-23T05:34:38.374Z,0.3
2022-12-23T05:35:48.076Z,0.2
2022-12-23T05:36:56.767Z,0.6
2022-12-23T05:38:04.523Z,0.3
2022-12-23T05:39:14.203Z,0.3
2022-12-23T05:40:24.885Z,0.3
2022-12-23T05:41:33.536Z,0.5
2022-12-23T05:42:42.225Z,0.4
2022-12-23T05:43:52.026Z,0.4
2022-12-23T05:45:01.858Z,0.4
2022-12-23T05:46:11.508Z,0.3
2022-12-23T05:47:19.133Z,0.5
2022-12-23T05:48:27.839Z,0.3
2022-12-23T05:49:36.553Z,0.6
2022-12-23T05:50:45.257Z,0.4
2022-12-23T05:51:54.967Z,0.4
2022-12-23T05:53:04.701Z,0.4
2022-12-23T05:54:14.367Z,0.3
2022-12-23T05:55:24.060Z,0.4
2022-12-23T05:56:32.778Z,0.3
2022-12-23T05:57:42.467Z,0.4
2022-12-23T05:58:51.115Z,0.4
2022-12-23T05:59:59.794Z,0.4
2022-12-23T06:01:09.624Z,0.4
2022-12-23T06:02:17.325Z,0.2
2022-12-23T06:03:27.041Z,0.3
2022-12-23T06:04:36.595Z,0.3
2022-12-23T06:05:45.293Z,0.3
2022-12-23T06:06:54.987Z,0.3
2022-12-23T06:08:04.665Z,0.4
2022-12-23T06:09:14.364Z,1.1
2022-12-23T06:10:23.016Z,0.4
2022-12-23T06:11:32.668Z,0.4
2022-12-23T06:12:42.383Z,0.5
2022-12-23T06:13:51.064Z,0.4
2022-12-23T06:14:58.747Z,0.3
2022-12-23T06:16:08.581Z,0.3
2022-12-23T06:17:17.225Z,0.4
2022-12-23T06:18:25.925Z,0.6
2022-12-23T06:19:35.599Z,0.4
2022-12-23T06:20:43.279Z,0.4
2022-12-23T06:21:52.980Z,0.8
2022-12-23T06:23:01.637Z,0.4
2022-12-23T06:24:10.343Z,0.3
2022-12-23T06:25:18.988Z,0.4
2022-12-23T06:26:28.711Z,0.3
2022-12-23T06:27:37.341Z,0.3
2022-12-23T06:28:44.999Z,0.2
2022-12-23T06:29:53.703Z,0.3
2022-12-23T06:31:03.405Z,0.2
2022-12-23T06:32:13.186Z,0.2
2022-12-23T06:33:21.754Z,0.2
2022-12-23T06:34:31.385Z,0.4
2022-12-23T06:35:41.122Z,0.2
2022-12-23T06:36:50.785Z,0.4
2022-12-23T06:38:00.512Z,0.5
2022-12-23T06:39:09.134Z,0.3
2022-12-23T06:40:18.811Z,0.3
2022-12-23T06:41:28.556Z,0.4
2022-12-23T06:42:38.223Z,0.3
2022-12-23T06:43:52.605Z,0.3
2022-12-23T06:44:58.508Z,0.4
2022-12-23T06:46:08.310Z,0.3
2022-12-23T06:47:16.823Z,0.4
2022-12-23T06:48:25.555Z,0.4
2022-12-23T06:49:35.196Z,0.3
2022-12-23T06:50:43.849Z,0.2
2022-12-23T06:51:53.500Z,0.5
2022-12-23T06:53:02.176Z,0.3
2022-12-23T06:54:11.905Z,0.5
2022-12-23T06:55:21.576Z,0.5
2022-12-23T06:56:31.267Z,0.4
2022-12-23T06:57:39.999Z,0.4
2022-12-23T06:58:49.720Z,0.5
2022-12-23T06:59:58.395Z,0.5
2022-12-23T07:01:09.988Z,0.5
2022-12-23T07:02:17.912Z,0.4
2022-12-23T07:03:26.414Z,0.3
2022-12-23T07:04:36.167Z,0.3
2022-12-23T07:05:45.803Z,0.2
2022-12-23T07:06:54.486Z,0.3
2022-12-23T07:08:04.188Z,0.3
2022-12-23T07:09:12.866Z,0.4
2022-12-23T07:10:22.582Z,0.5
2022-12-23T07:11:31.201Z,0.5
2022-12-23T07:12:43.555Z,0.4
2022-12-23T07:13:51.524Z,0.6
2022-12-23T07:15:00.190Z,0.6
2022-12-23T07:16:07.927Z,0.6
2022-12-23T07:17:16.509Z,0.8
2022-12-23T07:18:25.207Z,0.5
2022-12-23T07:19:34.827Z,0.3
2022-12-23T07:20:43.656Z,0.3
2022-12-23T07:21:53.240Z,0.2
2022-12-23T07:23:02.902Z,0.3
2022-12-23T07:24:11.554Z,0.1
2022-12-23T07:25:20.275Z,0.2
2022-12-23T07:26:28.997Z,0.2
2022-12-23T07:27:37.669Z,0.2
2022-12-23T07:28:47.385Z,0.3
2022-12-23T07:29:57.081Z,0.2
2022-12-23T07:31:04.771Z,0.3
2022-12-23T07:32:14.388Z,0.2
2022-12-23T07:33:24.071Z,0.2
2022-12-23T07:34:33.737Z,0.3
2022-12-23T07:35:43.388Z,0.3
2022-12-23T07:36:53.083Z,1
2022-12-23T07:38:02.736Z,0.2
2022-12-23T07:39:11.422Z,0.3
2022-12-23T07:40:19.076Z,0.2
2022-12-23T07:41:28.743Z,0.3
2022-12-23T07:42:46.729Z,0.3
2022-12-23T07:43:48.043Z,0.4
2022-12-23T07:44:57.799Z,0.3
2022-12-23T07:46:07.492Z,0.3
2022-12-23T07:47:17.132Z,0.3
2022-12-23T07:48:25.778Z,0.4
2022-12-23T07:49:33.435Z,0.3
2022-12-23T07:50:42.162Z,0.3
2022-12-23T07:51:50.841Z,0.2
2022-12-23T07:52:59.536Z,0.2
2022-12-23T07:54:09.185Z,0.5
2022-12-23T07:55:17.868Z,0.3
2022-12-23T07:56:27.584Z,0.3
2022-12-23T07:57:37.287Z,0.3
2022-12-23T07:58:45.968Z,0.2
2022-12-23T07:59:55.629Z,0.3
2022-12-23T08:01:03.696Z,0.4
2022-12-23T08:02:12.446Z,0.3
2022-12-23T08:03:21.093Z,0.3
2022-12-23T08:04:30.703Z,0.3
2022-12-23T08:05:40.338Z,0.3
2022-12-23T08:06:49.005Z,0.4
2022-12-23T08:07:57.672Z,0.3
2022-12-23T08:09:06.380Z,0.5
2022-12-23T08:10:16.042Z,0.4
2022-12-23T08:11:24.704Z,0.5
2022-12-23T08:12:33.375Z,0.4
2022-12-23T08:13:42.053Z,0.4
2022-12-23T08:14:51.705Z,0.3
2022-12-23T08:16:00.440Z,0.4
2022-12-23T08:17:10.228Z,0.4
2022-12-23T08:18:19.868Z,0.3
2022-12-23T08:19:29.515Z,0.3
2022-12-23T08:20:38.171Z,0.3
2022-12-23T08:21:47.845Z,0.3
2022-12-23T08:22:56.509Z,0.4
2022-12-23T08:24:06.180Z,0.2
2022-12-23T08:25:14.873Z,0.3
2022-12-23T08:26:23.539Z,0.4
2022-12-23T08:27:33.238Z,0.2
2022-12-23T08:28:41.867Z,0.5
2022-12-23T08:29:50.517Z,0.3
2022-12-23T08:31:00.301Z,0.2
2022-12-23T08:32:09.903Z,0.2
2022-12-23T08:33:18.555Z,0.2
2022-12-23T08:34:28.210Z,0.3
2022-12-23T08:35:37.905Z,0.2
2022-12-23T08:36:47.582Z,0.6
2022-12-23T08:37:56.260Z,0.1
2022-12-23T08:39:05.955Z,0.2
2022-12-23T08:40:15.623Z,0.4
2022-12-23T08:41:24.373Z,0.7
2022-12-23T08:42:33.971Z,0.4
2022-12-23T08:43:42.633Z,0.3
2022-12-23T08:44:52.300Z,0.4
2022-12-23T08:46:02.107Z,0.3
2022-12-23T08:47:10.699Z,0.2
2022-12-23T08:48:21.391Z,0.3
2022-12-23T08:49:30.036Z,0.2
2022-12-23T08:50:38.699Z,0.2
2022-12-23T08:51:47.358Z,0.3
2022-12-23T08:52:57.062Z,0.3
2022-12-23T08:54:06.763Z,0.2
2022-12-23T08:55:15.432Z,0.4
2022-12-23T08:56:25.138Z,0.3
2022-12-23T08:57:34.810Z,0.4
2022-12-23T08:58:43.453Z,0.4
2022-12-23T08:59:52.127Z,0.6
2022-12-23T09:01:00.861Z,0.6
2022-12-23T09:02:10.688Z,0.4
2022-12-23T09:03:20.263Z,2
2022-12-23T09:04:28.791Z,0.4
2022-12-23T09:05:37.462Z,0.2
2022-12-23T09:06:47.192Z,0.3
2022-12-23T09:07:55.837Z,0.2
2022-12-23T09:09:04.508Z,0.2
2022-12-23T09:10:14.201Z,0.2
2022-12-23T09:11:22.875Z,0.6
2022-12-23T09:12:32.549Z,0.2
2022-12-23T09:13:41.235Z,0.1
2022-12-23T09:14:50.852Z,0.5
2022-12-23T09:16:00.612Z,0.1
2022-12-23T09:17:09.241Z,0.2
2022-12-23T09:18:18.942Z,0.2
2022-12-23T09:19:27.595Z,0.1
2022-12-23T09:20:36.250Z,0.1
2022-12-23T09:21:45.968Z,0.3
2022-12-23T09:22:55.638Z,0.3
2022-12-23T09:24:04.410Z,0.2
2022-12-23T09:25:14.090Z,0.2
2022-12-23T09:26:22.893Z,1.4
2022-12-23T09:27:32.539Z,0.6
2022-12-23T09:28:42.228Z,0.4
2022-12-23T09:29:50.904Z,0.2
2022-12-23T09:31:00.541Z,0.2
2022-12-23T09:32:09.187Z,0.6
2022-12-23T09:33:18.874Z,0.2
2022-12-23T09:34:28.546Z,0.3
2022-12-23T09:35:37.196Z,0.2
2022-12-23T09:36:50.438Z,0.5
2022-12-23T09:37:57.484Z,0.4
2022-12-23T09:39:05.171Z,0.2
2022-12-23T09:40:14.840Z,1.5
2022-12-23T09:41:24.519Z,0.2
2022-12-23T09:42:33.191Z,0.3
2022-12-23T09:43:42.894Z,0.2
2022-12-23T09:44:51.542Z,0.3
2022-12-23T09:46:01.309Z,0.2
2022-12-23T09:47:09.938Z,0.2
2022-12-23T09:48:18.610Z,0.3
2022-12-23T09:49:28.287Z,0.3
2022-12-23T09:50:36.994Z,0.2
2022-12-23T09:51:46.702Z,0.2
2022-12-23T09:52:56.363Z,0.2
2022-12-23T09:54:05.045Z,0.3
2022-12-23T09:55:14.731Z,0.2
2022-12-23T09:56:23.393Z,0.3
2022-12-23T09:57:33.098Z,0.2
2022-12-23T09:58:42.791Z,0.3
2022-12-23T09:59:52.426Z,0.3
2022-12-23T10:01:00.104Z,0.3
2022-12-23T10:02:09.917Z,0.2
2022-12-23T10:03:19.556Z,0.2
2022-12-23T10:04:28.193Z,0.2
2022-12-23T10:05:37.813Z,0.2
2022-12-23T10:06:45.475Z,0.3
2022-12-23T10:07:55.205Z,1.2
2022-12-23T10:09:03.904Z,0.3
2022-12-23T10:10:13.571Z,0.2
2022-12-23T10:11:23.251Z,0.3
2022-12-23T10:12:35.921Z,0.2
2022-12-23T10:13:42.547Z,0.2
2022-12-23T10:14:52.232Z,0.2
2022-12-23T10:16:00.969Z,0.1
2022-12-23T10:17:11.610Z,0.2
2022-12-23T10:18:21.231Z,0.2
2022-12-23T10:19:28.891Z,0.3
2022-12-23T10:20:38.569Z,0.2
2022-12-23T10:21:48.333Z,0.2
2022-12-23T10:22:57.871Z,0.3
2022-12-23T10:24:06.580Z,0.3
2022-12-23T10:25:14.237Z,0.3
2022-12-23T10:26:23.946Z,0.3
2022-12-23T10:27:32.598Z,0.3
2022-12-23T10:28:40.260Z,0.4
2022-12-23T10:29:49.934Z,0.4
2022-12-23T10:31:23.611Z,0.2
2022-12-23T10:32:09.302Z,0.2
2022-12-23T10:33:18.945Z,0.2
2022-12-23T10:34:26.569Z,0.1
2022-12-23T10:35:37.238Z,0.2
2022-12-23T10:36:45.930Z,0.3
2022-12-23T10:37:53.608Z,0.2
2022-12-23T10:39:03.262Z,0.5
2022-12-23T10:40:12.950Z,0.2
2022-12-23T10:41:22.600Z,0.3
2022-12-23T10:42:32.281Z,0.2
2022-12-23T10:43:41.969Z,0.2
2022-12-23T10:44:51.630Z,0.2
2022-12-23T10:46:00.308Z,0.3
2022-12-23T10:47:10.088Z,0.2
2022-12-23T10:48:18.620Z,0.2
2022-12-23T10:49:28.359Z,0.3
2022-12-23T10:50:37.995Z,0.2
2022-12-23T10:51:47.646Z,0.1
2022-12-23T10:52:56.370Z,0.5
2022-12-23T10:54:06.138Z,0.1
2022-12-23T10:55:13.840Z,0.2
2022-12-23T10:56:23.587Z,0.2
2022-12-23T10:57:33.250Z,0.2
2022-12-23T10:58:41.923Z,0.2
2022-12-23T10:59:51.574Z,0.3
2022-12-23T11:01:01.349Z,0.4
2022-12-23T11:02:11.071Z,0.4
2022-12-23T11:03:19.675Z,0.3
2022-12-23T11:04:28.246Z,0.3
2022-12-23T11:05:37.982Z,0.2
2022-12-23T11:06:50.653Z,0.3
2022-12-23T11:07:58.400Z,0.3
2022-12-23T11:09:07.116Z,0.3
2022-12-23T11:10:15.772Z,0.3
2022-12-23T11:11:25.430Z,0.3
2022-12-23T11:12:38.673Z,0.5
2022-12-23T11:13:45.867Z,0.2
2022-12-23T11:14:55.543Z,0.3
2022-12-23T11:16:04.186Z,0.4
2022-12-23T11:17:12.829Z,0.2
2022-12-23T11:18:22.513Z,0.2
2022-12-23T11:19:32.159Z,0.3
2022-12-23T11:20:40.900Z,0.2
2022-12-23T11:21:50.548Z,0.2
2022-12-23T11:22:58.203Z,0.2
2022-12-23T11:24:07.871Z,0.2
2022-12-23T11:25:16.516Z,0.5
2022-12-23T11:26:24.170Z,0.2
2022-12-23T11:27:33.897Z,0.2
2022-12-23T11:28:43.581Z,0.1
2022-12-23T11:29:52.255Z,0.2
2022-12-23T11:31:00.894Z,0.4
2022-12-23T11:32:09.597Z,0.4
2022-12-23T11:33:19.283Z,0.3
2022-12-23T11:34:28.939Z,0.2
2022-12-23T11:35:37.704Z,0.2
2022-12-23T11:36:50.088Z,0.2
2022-12-23T11:37:56.951Z,0.2
2022-12-23T11:39:06.614Z,0.4
2022-12-23T11:40:16.303Z,0.2
2022-12-23T11:41:25.986Z,0.7
2022-12-23T11:42:35.648Z,0.2
2022-12-23T11:43:45.305Z,0.3
2022-12-23T11:44:54.981Z,0.2
2022-12-23T11:46:04.679Z,0.3
2022-12-23T11:47:14.340Z,0.2
2022-12-23T11:48:22.988Z,0.3
2022-12-23T11:49:31.671Z,0.6
2022-12-23T11:50:39.331Z,0.7
2022-12-23T11:51:49.025Z,0.6
2022-12-23T11:52:58.657Z,0.3
2022-12-23T11:54:06.323Z,0.3
2022-12-23T11:55:15.991Z,0.2
2022-12-23T11:56:24.660Z,0.2
2022-12-23T11:57:33.297Z,0.3
2022-12-23T11:58:41.990Z,0.3
2022-12-23T11:59:49.630Z,0.2
2022-12-23T12:01:00.330Z,0.1
2022-12-23T12:02:09.044Z,0.2
2022-12-23T12:03:15.678Z,0.3
2022-12-23T12:04:25.348Z,0.1
2022-12-23T12:05:35.018Z,0.2
2022-12-23T12:06:46.420Z,0.1
2022-12-23T12:07:55.323Z,0.2
2022-12-23T12:09:02.955Z,0.2
2022-12-23T12:10:12.645Z,0.2
2022-12-23T12:11:21.308Z,0.3
2022-12-23T12:12:27.970Z,0.1
2022-12-23T12:13:37.628Z,0.1
2022-12-23T12:14:46.309Z,1.3
2022-12-23T12:15:54.981Z,0.1
2022-12-23T12:17:04.755Z,0.2
2022-12-23T12:18:13.299Z,0.4
2022-12-23T12:19:22.976Z,0.1
2022-12-23T12:20:32.683Z,0.2
2022-12-23T12:21:41.350Z,0.2
2022-12-23T12:22:51.107Z,1.7
2022-12-23T12:24:17.517Z,0.3
2022-12-23T12:25:11.389Z,0.2
2022-12-23T12:26:20.044Z,0.5
2022-12-23T12:27:29.747Z,0.3
2022-12-23T12:28:39.403Z,0.3
2022-12-23T12:29:49.067Z,0.4
2022-12-23T12:30:57.834Z,0.2
2022-12-23T12:32:07.400Z,0.3
2022-12-23T12:33:16.095Z,0.2
2022-12-23T12:34:25.772Z,0.3
2022-12-23T12:35:34.420Z,0.2
2022-12-23T12:36:42.102Z,0.2
2022-12-23T12:37:50.729Z,0.2
2022-12-23T12:38:59.430Z,0.2
2022-12-23T12:40:09.218Z,0.2
2022-12-23T12:41:18.733Z,0.2
2022-12-23T12:42:26.399Z,0.3
2022-12-23T12:43:36.068Z,0.2
2022-12-23T12:44:44.731Z,0.2
2022-12-23T12:45:54.464Z,0.2
2022-12-23T12:47:11.035Z,0.2
2022-12-23T12:48:18.038Z,0.2
2022-12-23T12:49:23.368Z,0.2
2022-12-23T12:50:33.068Z,0.2
2022-12-23T12:51:41.749Z,0.2
2022-12-23T12:52:51.392Z,0.1
2022-12-23T12:54:04.915Z,0.2
2022-12-23T12:55:11.695Z,0.4
2022-12-23T12:56:21.427Z,0.4
2022-12-23T12:57:31.081Z,0.6
2022-12-23T12:58:40.745Z,0.6
2022-12-23T12:59:49.409Z,0.2
2022-12-23T13:00:57.095Z,0.2
2022-12-23T13:02:06.794Z,0.3
2022-12-23T13:03:16.433Z,0.3
2022-12-23T13:04:25.091Z,0.4
2022-12-23T13:05:33.742Z,0.5
2022-12-23T13:06:43.416Z,0.6
2022-12-23T13:07:53.124Z,0.6
2022-12-23T13:09:01.797Z,0.7
2022-12-23T13:10:10.476Z,0.6
2022-12-23T13:11:24.877Z,0.4
2022-12-23T13:12:30.781Z,0.3
2022-12-23T13:13:39.460Z,0.5
2022-12-23T13:14:49.120Z,0.3
2022-12-23T13:15:57.785Z,0.3
2022-12-23T13:17:07.533Z,0.3
2022-12-23T13:18:17.225Z,0.2
2022-12-23T13:19:26.911Z,0.5
2022-12-23T13:20:36.591Z,0.3
2022-12-23T13:21:45.239Z,0.4
2022-12-23T13:22:54.912Z,0.6
2022-12-23T13:24:05.552Z,0.4
2022-12-23T13:25:14.234Z,0.5
2022-12-23T13:26:22.928Z,0.6
2022-12-23T13:27:32.659Z,0.3
2022-12-23T13:28:42.261Z,0.5
2022-12-23T13:29:56.263Z,0.3
2022-12-23T13:31:02.058Z,0.3
2022-12-23T13:32:11.670Z,0.4
2022-12-23T13:33:20.340Z,0.3
2022-12-23T13:34:30.010Z,1.3
2022-12-23T13:35:39.660Z,0.4
2022-12-23T13:36:49.402Z,0.4
2022-12-23T13:37:58.006Z,0.3
2022-12-23T13:39:07.665Z,0.4
2022-12-23T13:40:16.326Z,0.4
2022-12-23T13:41:24.980Z,0.6
2022-12-23T13:42:33.693Z,0.3
2022-12-23T13:43:42.327Z,0.3
2022-12-23T13:44:51.990Z,0.3
2022-12-23T13:46:01.754Z,0.3
2022-12-23T13:47:09.370Z,0.3
2022-12-23T13:48:19.061Z,0.3
2022-12-23T13:49:28.719Z,0.4
2022-12-23T13:50:37.369Z,0.3
2022-12-23T13:51:46.032Z,0.4
2022-12-23T13:52:53.671Z,0.3
2022-12-23T13:54:04.906Z,0.3
2022-12-23T13:55:13.010Z,0.4
2022-12-23T13:56:21.675Z,0.4
2022-12-23T13:57:31.335Z,0.5
2022-12-23T13:58:41.019Z,0.5
2022-12-23T13:59:49.702Z,0.3
2022-12-23T14:00:59.389Z,0.3
2022-12-23T14:02:08.175Z,0.7
2022-12-23T14:03:17.752Z,0.4
2022-12-23T14:04:27.391Z,0.3
2022-12-23T14:05:36.112Z,0.6
2022-12-23T14:06:45.769Z,0.6
2022-12-23T14:07:55.425Z,0.5
2022-12-23T14:09:04.122Z,1.2
2022-12-23T14:10:13.807Z,0.5
2022-12-23T14:11:21.517Z,0.6
2022-12-23T14:12:31.236Z,0.7
2022-12-23T14:13:40.993Z,0.5
2022-12-23T14:14:49.864Z,0.6
2022-12-23T14:15:59.623Z,0.8
2022-12-23T14:17:09.232Z,0.7
2022-12-23T14:18:17.876Z,0.6
2022-12-23T14:19:27.532Z,0.4
2022-12-23T14:20:35.215Z,0.6
2022-12-23T14:21:44.935Z,0.5
2022-12-23T14:22:53.658Z,0.6
2022-12-23T14:24:04.624Z,0.5
2022-12-23T14:25:12.966Z,0.4
2022-12-23T14:26:22.654Z,0.5
2022-12-23T14:27:31.494Z,0.4
2022-12-23T14:28:40.191Z,0.4
2022-12-23T14:29:47.911Z,0.4
2022-12-23T14:30:57.780Z,0.6
2022-12-23T14:32:07.277Z,0.5
2022-12-23T14:33:16.957Z,0.4
2022-12-23T14:34:26.650Z,0.4
2022-12-23T14:35:42.341Z,0.3
2022-12-23T14:36:46.989Z,0.4
2022-12-23T14:37:55.624Z,0.2
2022-12-23T14:39:04.413Z,0.4
2022-12-23T14:40:14.099Z,0.3
2022-12-23T14:41:21.942Z,0.7
2022-12-23T14:42:31.787Z,0.5
2022-12-23T14:43:41.441Z,0.7
2022-12-23T14:44:50.116Z,0.5
2022-12-23T14:45:59.873Z,0.8
2022-12-23T14:47:08.471Z,0.7
2022-12-23T14:48:16.097Z,0.7
2022-12-23T14:49:41.014Z,0.8
2022-12-23T14:50:34.455Z,0.6
2022-12-23T14:51:44.180Z,0.7
2022-12-23T14:52:53.853Z,0.7
2022-12-23T14:54:03.518Z,0.6
2022-12-23T14:55:29.475Z,0.8
2022-12-23T14:56:22.903Z,0.6
2022-12-23T14:57:32.591Z,0.7
2022-12-23T14:58:42.335Z,0.8
2022-12-23T14:59:50.068Z,0.7
2022-12-23T15:00:59.815Z,0.7
2022-12-23T15:02:08.493Z,0.6
2022-12-23T15:03:18.262Z,1
2022-12-23T15:04:27.859Z,0.8
2022-12-23T15:05:37.507Z,0.4
2022-12-23T15:06:47.221Z,0.6
2022-12-23T15:07:55.907Z,0.5
2022-12-23T15:09:04.744Z,0.7
2022-12-23T15:10:14.444Z,0.5
2022-12-23T15:11:23.187Z,0.3
2022-12-23T15:12:32.859Z,0.6
2022-12-23T15:13:42.728Z,0.6
2022-12-23T15:14:52.983Z,0.6
2022-12-23T15:16:02.738Z,0.3
2022-12-23T15:17:11.256Z,0.8
2022-12-23T15:18:19.989Z,1.1
2022-12-23T15:19:29.645Z,0.5
2022-12-23T15:20:39.327Z,0.6
2022-12-23T15:21:55.798Z,0.4
2022-12-23T15:22:59.689Z,0.6
2022-12-23T15:24:08.345Z,1
2022-12-23T15:25:18.085Z,0.6
2022-12-23T15:26:26.949Z,0.5
2022-12-23T15:27:34.616Z,0.5
2022-12-23T15:28:44.293Z,0.2
2022-12-23T15:29:54.028Z,1.1
2022-12-23T15:31:02.421Z,0.6
2022-12-23T15:32:12.055Z,0.2
2022-12-23T15:34:00.462Z,0.8
2022-12-23T15:34:31.697Z,0.6
2022-12-23T15:35:41.294Z,0.8
2022-12-23T15:36:51.033Z,0.5
2022-12-23T15:38:00.920Z,0.2
2022-12-23T15:39:10.585Z,0.3
2022-12-23T15:40:19.278Z,0.3
2022-12-23T15:41:28.955Z,0.7
2022-12-23T15:42:37.634Z,0.4
2022-12-23T15:43:47.374Z,1.5
2022-12-23T15:44:56.046Z,0.5
2022-12-23T15:46:05.792Z,1
2022-12-23T15:47:15.505Z,1
2022-12-23T15:48:26.264Z,0.5
2022-12-23T15:49:36.099Z,0.4
2022-12-23T15:50:45.811Z,0.4
2022-12-23T15:52:07.722Z,0.5
2022-12-23T15:53:05.108Z,0.5
2022-12-23T15:54:14.789Z,0.6